Terminal Aerodrome Forecast
Issued by NWS Cleveland, OH

Home | Current Version | Previous Version | Graphics & Text | Print | Product List | Glossary On
Versions: 1 2 3 4 5 6 7 8 9 10 11 12 13 14 15 16 17 18 19 20 21 22
000
FTUS41 KCLE 210300 AAA
TAFCAK
TAF AMD
KCAK 210319Z 2103/2124 20010KT P6SM SCT045 BKN150
      TEMPO 2104/2106 5SM -SHRA BR BKN020
     FM210800 22010KT 6SM BR SCT015 BKN035
      TEMPO 2109/2113 3SM -SHRA BKN015
     FM211600 26011KT P6SM BKN035
     FM212000 29014G20KT P6SM VCSH BKN035=

USA.gov is the U.S. government's official web portal to all federal, state and local government web resources and services.